Time,TemperatureF,DewpointF,PressureIn,WindDirection,WindDirectionDegrees,WindSpeedMPH,WindSpeedGustMPH,Humidity,HourlyPrecipIn,Conditions,Clouds,dailyrainin,SolarRadiationWatts/m^2,SoftwareType,DateUTC
2013-01-06 00:00:00,21.4,14.7,30.25,NW,306,9.0,9.0,75,0.00,,,0.00,0,Wunderground v.1.15,2013-01-06 06:00:00,
2013-01-06 00:09:00,21.6,15.2,30.25,NNW,338,8.0,10.0,76,0.00,,,0.00,0,Wunderground v.1.15,2013-01-06 06:09:00,
2013-01-06 00:19:00,21.8,15.4,30.25,WNW,300,8.0,11.0,76,0.00,,,0.00,0,Wunderground v.1.15,2013-01-06 06:19:00,
2013-01-06 00:29:00,21.9,15.5,30.26,NNW,342,8.0,8.0,76,0.00,,,0.00,0,Wunderground v.1.15,2013-01-06 06:29:00,
2013-01-06 00:40:00,22.1,15.7,30.25,WNW,302,10.0,10.0,76,0.00,,,0.00,0,Wunderground v.1.15,2013-01-06 06:40:00,
2013-01-06 00:50:00,22.1,15.7,30.25,NW,309,9.0,9.0,76,0.00,,,0.00,0,Wunderground v.1.15,2013-01-06 06:50:00,
2013-01-06 01:00:00,22.1,15.7,30.26,NW,313,8.0,12.0,76,0.00,,,0.00,0,Wunderground v.1.15,2013-01-06 07:00:00,
2013-01-06 01:10:00,22.1,15.7,30.26,NNW,328,9.0,11.0,76,0.00,,,0.00,0,Wunderground v.1.15,2013-01-06 07:10:00,
2013-01-06 01:20:00,22.1,16.0,30.26,NW,326,9.0,11.0,77,0.00,,,0.00,0,Wunderground v.1.15,2013-01-06 07:20:00,
2013-01-06 01:30:00,22.2,16.1,30.27,NW,316,8.0,12.0,77,0.00,,,0.00,0,Wunderground v.1.15,2013-01-06 07:30:00,
2013-01-06 01:40:00,22.2,16.1,30.27,NNW,327,9.0,13.0,77,0.00,,,0.00,0,Wunderground v.1.15,2013-01-06 07:40:00,
2013-01-06 01:50:00,22.4,16.3,30.27,NW,310,8.0,10.0,77,0.00,,,0.00,0,Wunderground v.1.15,2013-01-06 07:50:00,
2013-01-06 02:00:00,22.4,16.3,30.27,NW,315,7.0,7.0,77,0.00,,,0.00,0,Wunderground v.1.15,2013-01-06 08:00:00,
2013-01-06 02:10:00,22.5,16.4,30.28,NW,309,8.0,8.0,77,0.00,,,0.00,0,Wunderground v.1.15,2013-01-06 08:10:00,
2013-01-06 02:20:00,22.2,15.8,30.28,NW,324,6.0,6.0,76,0.00,,,0.00,0,Wunderground v.1.15,2013-01-06 08:20:00,
2013-01-06 02:30:00,21.8,15.7,30.28,NW,305,3.0,3.0,77,0.00,,,0.00,0,Wunderground v.1.15,2013-01-06 08:30:00,
2013-01-06 02:40:00,21.1,15.0,30.28,NW,325,0.0,0.0,77,0.00,,,0.00,0,Wunderground v.1.15,2013-01-06 08:40:00,
2013-01-06 02:50:00,20.8,15.0,30.28,NW,320,0.0,0.0,78,0.00,,,0.00,0,Wunderground v.1.15,2013-01-06 08:50:00,
2013-01-06 03:00:00,20.3,14.5,30.29,NW,320,0.0,0.0,78,0.00,,,0.00,0,Wunderground v.1.15,2013-01-06 09:00:00,
2013-01-06 03:10:00,20.0,14.2,30.29,NW,320,0.0,0.0,78,0.00,,,0.00,0,Wunderground v.1.15,2013-01-06 09:10:00,
2013-01-06 03:20:00,19.4,13.9,30.29,NW,318,0.0,0.0,79,0.00,,,0.00,0,Wunderground v.1.15,2013-01-06 09:20:00,
2013-01-06 03:30:00,19.4,14.2,30.31,NW,307,0.0,0.0,80,0.00,,,0.00,0,Wunderground v.1.15,2013-01-06 09:30:00,
2013-01-06 03:40:00,19.2,13.8,30.31,WNW,296,0.0,0.0,79,0.00,,,0.00,0,Wunderground v.1.15,2013-01-06 09:40:00,
2013-01-06 03:50:00,18.9,13.7,30.31,WNW,288,0.0,0.0,80,0.00,,,0.00,0,Wunderground v.1.15,2013-01-06 09:50:00,
2013-01-06 04:00:00,18.6,13.5,30.32,WNW,284,0.0,0.0,80,0.00,,,0.00,0,Wunderground v.1.15,2013-01-06 10:00:00,
2013-01-06 04:10:00,18.9,13.7,30.32,WNW,296,1.0,1.0,80,0.00,,,0.00,0,Wunderground v.1.15,2013-01-06 10:10:00,
2013-01-06 04:20:00,18.9,13.5,30.32,WNW,298,1.0,1.0,79,0.00,,,0.00,0,Wunderground v.1.15,2013-01-06 10:20:00,
2013-01-06 04:30:00,18.3,12.9,30.32,WNW,296,0.0,0.0,79,0.00,,,0.00,0,Wunderground v.1.15,2013-01-06 10:30:00,
2013-01-06 04:40:00,18.1,13.0,30.31,WNW,302,0.0,9.0,80,0.00,,,0.00,0,Wunderground v.1.15,2013-01-06 10:40:00,
2013-01-06 04:50:00,18.1,13.0,30.31,WNW,284,1.0,1.0,80,0.00,,,0.00,0,Wunderground v.1.15,2013-01-06 10:50:00,
2013-01-06 05:00:00,17.8,12.7,30.32,West,276,0.0,0.0,80,0.00,,,0.00,0,Wunderground v.1.15,2013-01-06 11:00:00,
2013-01-06 05:10:00,17.5,12.4,30.32,WNW,282,0.0,0.0,80,0.00,,,0.00,0,Wunderground v.1.15,2013-01-06 11:10:00,
2013-01-06 05:20:00,17.2,12.1,30.32,WNW,282,0.0,0.0,80,0.00,,,0.00,0,Wunderground v.1.15,2013-01-06 11:20:00,
2013-01-06 05:30:00,16.7,11.6,30.32,WNW,282,0.0,0.0,80,0.00,,,0.00,0,Wunderground v.1.15,2013-01-06 11:30:00,
2013-01-06 05:40:00,16.2,11.1,30.32,WNW,282,0.0,0.0,80,0.00,,,0.00,0,Wunderground v.1.15,2013-01-06 11:40:00,
2013-01-06 05:50:00,16.1,11.3,30.32,WNW,282,0.0,0.0,81,0.00,,,0.00,0,Wunderground v.1.15,2013-01-06 11:50:00,
2013-01-06 06:00:00,15.9,11.1,30.32,WNW,282,0.0,0.0,81,0.00,,,0.00,0,Wunderground v.1.15,2013-01-06 12:00:00,
2013-01-06 06:10:00,15.1,10.0,30.33,WNW,282,0.0,0.0,80,0.00,,,0.00,0,Wunderground v.1.15,2013-01-06 12:10:00,
2013-01-06 06:20:00,14.4,9.6,30.33,WNW,282,0.0,0.0,81,0.00,,,0.00,0,Wunderground v.1.15,2013-01-06 12:20:00,
2013-01-06 06:30:00,13.8,9.3,30.34,WNW,282,0.0,0.0,82,0.00,,,0.00,0,Wunderground v.1.15,2013-01-06 12:30:00,
2013-01-06 06:40:00,13.1,8.6,30.34,WNW,282,0.0,0.0,82,0.00,,,0.00,0,Wunderground v.1.15,2013-01-06 12:40:00,
2013-01-06 06:50:00,12.9,8.7,30.34,WNW,282,0.0,0.0,83,0.00,,,0.00,0,Wunderground v.1.15,2013-01-06 12:50:00,
2013-01-06 07:00:00,12.8,8.6,30.35,WNW,282,0.0,0.0,83,0.00,,,0.00,0,Wunderground v.1.15,2013-01-06 13:00:00,
2013-01-06 07:10:00,13.1,8.9,30.35,WNW,282,0.0,0.0,83,0.00,,,0.00,0,Wunderground v.1.15,2013-01-06 13:10:00,
2013-01-06 07:20:00,12.9,8.7,30.35,WNW,282,0.0,0.0,83,0.00,,,0.00,0,Wunderground v.1.15,2013-01-06 13:20:00,
2013-01-06 07:30:00,12.1,7.9,30.35,WNW,282,0.0,0.0,83,0.00,,,0.00,0,Wunderground v.1.15,2013-01-06 13:30:00,
2013-01-06 07:40:00,11.9,8.0,30.36,WNW,282,0.0,0.0,84,0.00,,,0.00,0,Wunderground v.1.15,2013-01-06 13:40:00,
2013-01-06 07:50:00,11.9,8.0,30.36,WNW,282,0.0,0.0,84,0.00,,,0.00,5,Wunderground v.1.15,2013-01-06 13:50:00,
2013-01-06 08:00:00,11.6,7.7,30.36,WNW,282,0.0,0.0,84,0.00,,,0.00,9,Wunderground v.1.15,2013-01-06 14:00:00,
2013-01-06 08:10:00,11.2,7.0,30.36,WNW,282,0.0,0.0,83,0.00,,,0.00,16,Wunderground v.1.15,2013-01-06 14:10:00,
2013-01-06 08:20:00,11.4,7.5,30.36,WNW,282,0.0,0.0,84,0.00,,,0.00,54,Wunderground v.1.15,2013-01-06 14:20:00,
2013-01-06 08:30:00,11.7,7.8,30.37,WNW,282,0.0,0.0,84,0.00,,,0.00,81,Wunderground v.1.15,2013-01-06 14:30:00,
2013-01-06 08:40:00,12.6,8.7,30.37,WNW,282,0.0,0.0,84,0.00,,,0.00,111,Wunderground v.1.15,2013-01-06 14:40:00,
2013-01-06 08:50:00,14.0,10.1,30.37,WNW,282,0.0,0.0,84,0.00,,,0.00,139,Wunderground v.1.15,2013-01-06 14:50:00,
2013-01-06 09:00:00,14.8,10.6,30.37,WNW,282,0.0,0.0,83,0.00,,,0.00,163,Wunderground v.1.15,2013-01-06 15:00:00,
2013-01-06 09:10:00,15.4,10.9,30.37,WNW,282,0.0,0.0,82,0.00,,,0.00,186,Wunderground v.1.15,2013-01-06 15:10:00,
2013-01-06 09:20:00,16.4,11.6,30.37,WSW,242,0.0,0.0,81,0.00,,,0.00,213,Wunderground v.1.15,2013-01-06 15:20:00,
2013-01-06 09:30:00,17.5,12.4,30.38,WSW,240,0.0,0.0,80,0.00,,,0.00,236,Wunderground v.1.15,2013-01-06 15:30:00,
2013-01-06 09:40:00,18.8,13.4,30.38,SW,234,0.0,0.0,79,0.00,,,0.00,264,Wunderground v.1.15,2013-01-06 15:40:00,
2013-01-06 09:50:00,19.4,13.4,30.38,SW,225,2.0,3.0,77,0.00,,,0.00,288,Wunderground v.1.15,2013-01-06 15:50:00,
2013-01-06 10:00:00,20.3,14.2,30.38,SW,226,1.0,1.0,77,0.00,,,0.00,309,Wunderground v.1.15,2013-01-06 16:00:00,
2013-01-06 10:10:00,21.3,14.9,30.38,SW,226,0.0,0.0,76,0.00,,,0.00,325,Wunderground v.1.15,2013-01-06 16:10:00,
2013-01-06 10:20:00,22.2,15.5,30.38,SW,226,0.0,0.0,75,0.00,,,0.00,343,Wunderground v.1.15,2013-01-06 16:20:00,
2013-01-06 10:30:00,22.9,15.5,30.39,SW,236,0.0,0.0,73,0.00,,,0.00,359,Wunderground v.1.15,2013-01-06 16:30:00,
2013-01-06 10:40:00,23.8,16.1,30.39,SW,235,0.0,0.0,72,0.00,,,0.00,378,Wunderground v.1.15,2013-01-06 16:40:00,
2013-01-06 10:50:00,24.7,16.6,30.39,SW,236,0.0,0.0,71,0.00,,,0.00,392,Wunderground v.1.15,2013-01-06 16:50:00,
2013-01-06 11:00:00,25.3,16.9,30.38,SW,235,0.0,0.0,70,0.00,,,0.00,404,Wunderground v.1.15,2013-01-06 17:00:00,
2013-01-06 11:10:00,25.4,16.3,30.38,SW,230,0.0,3.0,68,0.00,,,0.00,420,Wunderground v.1.15,2013-01-06 17:10:00,
2013-01-06 11:20:00,26.3,16.8,30.38,SSW,202,1.0,1.0,67,0.00,,,0.00,431,Wunderground v.1.15,2013-01-06 17:20:00,
2013-01-06 11:30:00,26.6,16.4,30.37,SSW,202,0.0,0.0,65,0.00,,,0.00,441,Wunderground v.1.15,2013-01-06 17:30:00,
2013-01-06 11:40:00,26.7,16.5,30.37,SSW,202,1.0,2.0,65,0.00,,,0.00,448,Wunderground v.1.15,2013-01-06 17:40:00,
2013-01-06 11:50:00,27.5,16.9,30.37,SSW,202,1.0,2.0,64,0.00,,,0.00,455,Wunderground v.1.15,2013-01-06 17:50:00,
2013-01-06 12:00:00,28.4,17.4,30.36,SSW,202,1.0,1.0,63,0.00,,,0.00,461,Wunderground v.1.15,2013-01-06 18:00:00,
2013-01-06 12:10:00,29.1,17.3,30.35,SSW,202,0.0,0.0,61,0.00,,,0.00,466,Wunderground v.1.15,2013-01-06 18:10:00,
2013-01-06 12:20:00,29.4,17.6,30.35,SSW,202,0.0,0.0,61,0.00,,,0.00,468,Wunderground v.1.15,2013-01-06 18:20:00,
2013-01-06 12:30:00,30.7,18.1,30.34,SSW,202,0.0,0.0,59,0.00,,,0.00,468,Wunderground v.1.15,2013-01-06 18:30:00,
2013-01-06 12:40:00,30.9,18.2,30.33,SSW,196,1.0,1.0,59,0.00,,,0.00,468,Wunderground v.1.15,2013-01-06 18:40:00,
2013-01-06 12:50:00,31.0,18.3,30.33,SSW,202,1.0,4.0,59,0.00,,,0.00,464,Wunderground v.1.15,2013-01-06 18:50:00,
2013-01-06 13:00:00,30.9,19.0,30.33,SSW,207,3.0,5.0,61,0.00,,,0.00,459,Wunderground v.1.15,2013-01-06 19:00:00,
2013-01-06 13:10:00,31.3,19.0,30.32,SSW,207,2.0,2.0,60,0.00,,,0.00,455,Wunderground v.1.15,2013-01-06 19:10:00,
2013-01-06 13:20:00,32.1,20.2,30.32,SSW,208,2.0,2.0,61,0.00,,,0.00,448,Wunderground v.1.15,2013-01-06 19:20:00,
2013-01-06 13:30:00,32.5,20.5,30.31,SSW,207,2.0,2.0,61,0.00,,,0.00,439,Wunderground v.1.15,2013-01-06 19:30:00,
2013-01-06 13:40:00,33.2,20.8,30.30,SSW,208,2.0,2.0,60,0.00,,,0.00,429,Wunderground v.1.15,2013-01-06 19:40:00,
2013-01-06 13:50:00,34.0,21.6,30.30,SSW,208,1.0,2.0,60,0.00,,,0.00,415,Wunderground v.1.15,2013-01-06 19:50:00,
2013-01-06 14:10:00,36.0,22.6,30.28,SSW,208,0.0,0.0,58,0.00,,,0.00,387,Wunderground v.1.15,2013-01-06 20:10:00,
2013-01-06 14:20:00,37.2,23.4,30.28,SSW,208,0.0,0.0,57,0.00,,,0.00,371,Wunderground v.1.15,2013-01-06 20:20:00,
2013-01-06 14:30:00,37.0,23.2,30.29,SSW,208,0.0,0.0,57,0.00,,,0.00,355,Wunderground v.1.15,2013-01-06 20:30:00,
2013-01-06 14:40:00,37.3,23.4,30.28,SSW,208,0.0,0.0,57,0.00,,,0.00,334,Wunderground v.1.15,2013-01-06 20:40:00,
2013-01-06 14:50:00,37.3,23.9,30.28,SSW,208,0.0,0.0,58,0.00,,,0.00,318,Wunderground v.1.15,2013-01-06 20:50:00,
2013-01-06 15:00:00,38.0,23.7,30.28,SSW,208,0.0,0.0,56,0.00,,,0.00,297,Wunderground v.1.15,2013-01-06 21:00:00,
2013-01-06 15:10:00,38.8,24.0,30.28,SSW,208,0.0,0.0,55,0.00,,,0.00,276,Wunderground v.1.15,2013-01-06 21:10:00,
2013-01-06 15:20:00,39.3,24.0,30.28,SSW,208,0.0,0.0,54,0.00,,,0.00,257,Wunderground v.1.15,2013-01-06 21:20:00,
2013-01-06 15:30:00,39.6,24.3,30.28,SSW,208,0.0,0.0,54,0.00,,,0.00,232,Wunderground v.1.15,2013-01-06 21:30:00,
2013-01-06 15:40:00,39.9,25.0,30.28,SSW,207,0.0,0.0,55,0.00,,,0.00,207,Wunderground v.1.15,2013-01-06 21:40:00,
2013-01-06 15:50:00,39.1,24.7,30.28,SSW,208,0.0,0.0,56,0.00,,,0.00,186,Wunderground v.1.15,2013-01-06 21:50:00,
2013-01-06 16:00:00,38.8,25.3,30.28,SSW,208,0.0,0.0,58,0.00,,,0.00,160,Wunderground v.1.15,2013-01-06 22:00:00,
2013-01-06 16:10:00,38.3,24.4,30.28,SSW,207,0.0,0.0,57,0.00,,,0.00,116,Wunderground v.1.15,2013-01-06 22:10:00,
2013-01-06 16:20:00,37.6,24.6,30.28,SSW,208,0.0,0.0,59,0.00,,,0.00,93,Wunderground v.1.15,2013-01-06 22:20:00,
2013-01-06 16:30:00,37.0,24.8,30.28,SSW,208,0.0,0.0,61,0.00,,,0.00,79,Wunderground v.1.15,2013-01-06 22:30:00,
2013-01-06 16:40:00,36.9,25.1,30.28,SSW,208,0.0,0.0,62,0.00,,,0.00,53,Wunderground v.1.15,2013-01-06 22:40:00,
2013-01-06 16:50:00,35.8,24.4,30.28,SSW,208,0.0,0.0,63,0.00,,,0.00,12,Wunderground v.1.15,2013-01-06 22:50:00,
2013-01-06 17:00:00,33.7,23.5,30.28,SSW,207,0.0,0.0,66,0.00,,,0.00,11,Wunderground v.1.15,2013-01-06 23:00:00,
2013-01-06 17:10:00,33.7,24.3,30.28,SSW,208,0.0,0.0,68,0.00,,,0.00,5,Wunderground v.1.15,2013-01-06 23:10:00,
2013-01-06 17:20:00,32.8,23.7,30.28,SSW,208,0.0,0.0,69,0.00,,,0.00,0,Wunderground v.1.15,2013-01-06 23:20:00,
2013-01-06 17:30:00,31.5,23.5,30.28,SSW,208,0.0,0.0,72,0.00,,,0.00,0,Wunderground v.1.15,2013-01-06 23:30:00,
2013-01-06 17:40:00,30.6,22.6,30.28,SSW,208,0.0,0.0,72,0.00,,,0.00,0,Wunderground v.1.15,2013-01-06 23:40:00,
2013-01-06 17:50:00,29.5,22.6,30.28,SSW,208,0.0,0.0,75,0.00,,,0.00,0,Wunderground v.1.15,2013-01-06 23:50:00,
2013-01-06 18:00:00,29.0,22.4,30.28,SSW,208,0.0,0.0,76,0.00,,,0.00,0,Wunderground v.1.15,2013-01-07 00:00:00,
2013-01-06 18:10:00,29.3,23.0,30.28,SSW,208,0.0,0.0,77,0.00,,,0.00,0,Wunderground v.1.15,2013-01-07 00:10:00,
2013-01-06 18:20:00,29.1,22.5,30.28,SSW,208,0.0,0.0,76,0.00,,,0.00,0,Wunderground v.1.15,2013-01-07 00:20:00,
2013-01-06 18:30:00,28.7,22.1,30.28,SSW,208,0.0,0.0,76,0.00,,,0.00,0,Wunderground v.1.15,2013-01-07 00:30:00,
2013-01-06 18:40:00,27.6,21.0,30.28,SSW,208,0.0,0.0,76,0.00,,,0.00,0,Wunderground v.1.15,2013-01-07 00:40:00,
2013-01-06 18:50:00,26.7,21.1,30.28,SSW,208,0.0,0.0,79,0.00,,,0.00,0,Wunderground v.1.15,2013-01-07 00:50:00,
2013-01-06 19:00:00,26.7,21.1,30.27,SSW,208,0.0,0.0,79,0.00,,,0.00,0,Wunderground v.1.15,2013-01-07 01:00:00,
2013-01-06 19:10:00,26.6,21.3,30.27,SSW,208,0.0,0.0,80,0.00,,,0.00,0,Wunderground v.1.15,2013-01-07 01:10:00,
2013-01-06 19:20:00,26.1,20.8,30.27,SSW,208,0.0,0.0,80,0.00,,,0.00,0,Wunderground v.1.15,2013-01-07 01:20:00,
2013-01-06 19:30:00,25.6,20.3,30.27,SSW,208,0.0,0.0,80,0.00,,,0.00,0,Wunderground v.1.15,2013-01-07 01:30:00,
2013-01-06 19:40:00,26.0,21.3,30.25,SSW,208,0.0,0.0,82,0.00,,,0.00,0,Wunderground v.1.15,2013-01-07 01:40:00,
2013-01-06 19:50:00,26.9,22.1,30.25,SSW,208,0.0,0.0,82,0.00,,,0.00,0,Wunderground v.1.15,2013-01-07 01:50:00,
2013-01-06 20:00:00,27.2,22.1,30.24,SSW,208,0.0,0.0,81,0.00,,,0.00,0,Wunderground v.1.15,2013-01-07 02:00:00,
2013-01-06 20:10:00,27.0,21.7,30.24,SSW,208,0.0,0.0,80,0.00,,,0.00,0,Wunderground v.1.15,2013-01-07 02:10:00,
2013-01-06 20:20:00,27.2,21.8,30.24,SSW,208,0.0,0.0,80,0.00,,,0.00,0,Wunderground v.1.15,2013-01-07 02:20:00,
2013-01-06 20:30:00,27.8,22.4,30.24,SSW,208,0.0,0.0,80,0.00,,,0.00,0,Wunderground v.1.15,2013-01-07 02:30:00,
2013-01-06 20:40:00,28.4,23.0,30.23,South,180,0.0,0.0,80,0.00,,,0.00,0,Wunderground v.1.15,2013-01-07 02:40:00,
2013-01-06 20:50:00,28.8,23.1,30.23,South,182,0.0,0.0,79,0.00,,,0.00,0,Wunderground v.1.15,2013-01-07 02:50:00,
2013-01-06 21:00:00,29.5,23.5,30.22,SSE,167,1.0,1.0,78,0.00,,,0.00,0,Wunderground v.1.15,2013-01-07 03:00:00,
2013-01-06 21:10:00,29.8,23.5,30.22,SSE,167,2.0,2.0,77,0.00,,,0.00,0,Wunderground v.1.15,2013-01-07 03:10:00,
2013-01-06 21:20:00,29.7,23.4,30.22,South,170,1.0,1.0,77,0.00,,,0.00,0,Wunderground v.1.15,2013-01-07 03:20:00,
2013-01-06 21:30:00,29.1,22.8,30.21,SSW,198,1.0,1.0,77,0.00,,,0.00,0,Wunderground v.1.15,2013-01-07 03:30:00,
2013-01-06 21:40:00,28.4,22.1,30.21,SSW,198,0.0,0.0,77,0.00,,,0.00,0,Wunderground v.1.15,2013-01-07 03:40:00,
2013-01-06 21:50:00,27.9,21.9,30.21,SSW,198,0.0,0.0,78,0.00,,,0.00,0,Wunderground v.1.15,2013-01-07 03:50:00,
2013-01-06 22:00:00,27.9,22.2,30.21,SSW,198,0.0,0.0,79,0.00,,,0.00,0,Wunderground v.1.15,2013-01-07 04:00:00,
2013-01-06 22:10:00,27.5,21.8,30.20,SSW,198,0.0,0.0,79,0.00,,,0.00,0,Wunderground v.1.15,2013-01-07 04:10:00,
2013-01-06 22:20:00,27.5,21.8,30.20,SSW,194,0.0,0.0,79,0.00,,,0.00,0,Wunderground v.1.15,2013-01-07 04:20:00,
2013-01-06 22:30:00,27.5,21.8,30.19,West,272,0.0,0.0,79,0.00,,,0.00,0,Wunderground v.1.15,2013-01-07 04:30:00,
2013-01-06 22:40:00,27.6,21.9,30.19,West,272,0.0,0.0,79,0.00,,,0.00,0,Wunderground v.1.15,2013-01-07 04:40:00,
2013-01-06 22:50:00,27.8,22.1,30.19,SSE,166,0.0,0.0,79,0.00,,,0.00,0,Wunderground v.1.15,2013-01-07 04:50:00,
2013-01-06 23:10:00,27.6,21.9,30.18,SE,146,1.0,4.0,79,0.00,,,0.00,0,Wunderground v.1.15,2013-01-07 05:10:00,
2013-01-06 23:20:00,27.9,22.2,30.18,South,184,1.0,3.0,79,0.00,,,0.00,0,Wunderground v.1.15,2013-01-07 05:20:00,
2013-01-06 23:30:00,28.5,22.5,30.17,SE,142,1.0,1.0,78,0.00,,,0.00,0,Wunderground v.1.15,2013-01-07 05:30:00,
2013-01-06 23:40:00,28.5,22.5,30.17,SSW,206,0.0,0.0,78,0.00,,,0.00,0,Wunderground v.1.15,2013-01-07 05:40:00,
2013-01-06 23:50:00,28.4,22.4,30.17,South,169,0.0,0.0,78,0.00,,,0.00,0,Wunderground v.1.15,2013-01-07 05:50:00,